createdAt,value
2018-05-01T00:02:17.714Z,78.80
2018-05-01T00:07:22.303Z,78.80
2018-05-01T00:12:25.374Z,78.80
2018-05-01T00:17:28.438Z,79.10
2018-05-01T00:22:31.907Z,79.50
2018-05-01T00:27:35.464Z,79.20
2018-05-01T00:32:39.742Z,79.80
2018-05-01T00:37:42.957Z,79.50
2018-05-01T00:42:47.225Z,79.40
2018-05-01T00:47:50.289Z,79.30
2018-05-01T00:52:54.134Z,79.70
2018-05-01T00:57:58.027Z,79.30
2018-05-01T01:03:01.506Z,79.80
2018-05-01T01:08:04.582Z,79.90
2018-05-01T01:13:08.051Z,80.10
2018-05-01T01:18:11.882Z,80.50
2018-05-01T01:23:15.394Z,80.30
2018-05-01T01:28:19.208Z,80.70
2018-05-01T01:33:23.417Z,80.60
2018-05-01T01:38:25.772Z,80.80
2018-05-01T01:48:33.232Z,81.70
2018-05-01T01:53:35.568Z,81.80
2018-05-01T01:58:39.394Z,81.10
2018-05-01T02:03:42.142Z,82.00
2018-05-01T02:08:45.655Z,81.60
2018-05-01T02:13:48.079Z,81.80
2018-05-01T02:18:50.385Z,81.40
2018-05-01T02:23:53.102Z,81.50
2018-05-01T02:28:56.186Z,81.90
2018-05-01T02:33:59.289Z,81.30
2018-05-01T02:39:01.891Z,80.60
2018-05-01T02:44:05.346Z,81.00
2018-05-01T02:54:11.870Z,80.10
2018-05-01T02:59:14.967Z,80.70
2018-05-01T03:04:17.299Z,81.30
2018-05-01T03:09:19.619Z,81.20
2018-05-01T03:14:22.351Z,80.90
2018-05-01T03:19:25.454Z,82.00
2018-05-01T03:24:27.845Z,81.30
2018-05-01T03:29:30.937Z,81.30
2018-05-01T03:34:33.653Z,80.90
2018-05-01T03:39:36.371Z,80.90
2018-05-01T03:44:39.469Z,81.00
2018-05-01T03:49:42.554Z,80.90
2018-05-01T03:54:44.901Z,81.30
2018-05-01T03:59:47.216Z,80.90
2018-05-01T04:04:50.668Z,81.50
2018-05-01T04:09:52.996Z,81.80
2018-05-01T04:14:56.845Z,82.50
2018-05-01T04:19:59.564Z,81.10
2018-05-01T04:25:01.882Z,81.20
2018-05-01T04:30:04.620Z,81.20
2018-05-01T04:35:07.738Z,80.70
2018-05-01T04:40:10.823Z,80.60
2018-05-01T04:45:13.148Z,80.60
2018-05-01T04:50:16.581Z,80.10
2018-05-01T04:55:18.941Z,80.00
2018-05-01T05:00:22.393Z,79.90
2018-05-01T05:05:25.484Z,80.10
2018-05-01T05:10:28.569Z,79.10
2018-05-01T05:15:32.721Z,79.90
2018-05-01T05:20:35.093Z,79.80
2018-05-01T05:25:38.176Z,79.00
2018-05-01T05:30:40.917Z,78.70
2018-05-01T05:40:47.185Z,79.10
2018-05-01T05:45:49.519Z,78.50
2018-05-01T05:50:52.406Z,78.70
2018-05-01T06:01:00.619Z,77.40
2018-05-01T06:06:02.937Z,77.50
2018-05-01T06:11:05.249Z,77.60
2018-05-01T06:16:08.341Z,77.70
2018-05-01T06:21:11.619Z,76.10
2018-05-01T06:26:13.997Z,74.60
2018-05-01T06:31:16.368Z,74.40
2018-05-01T06:36:18.645Z,73.30
2018-05-01T06:46:25.133Z,71.60
2018-05-01T06:51:28.601Z,72.10
2018-05-01T06:56:30.944Z,73.20
2018-05-01T07:06:37.200Z,71.30
2018-05-01T07:11:39.917Z,71.60
2018-05-01T07:16:43.757Z,69.10
2018-05-01T07:21:46.857Z,67.20
2018-05-01T07:26:49.182Z,68.20
2018-05-01T07:42:01.069Z,67.30
2018-05-01T07:47:03.392Z,67.40
2018-05-01T07:52:05.728Z,66.50
2018-05-01T07:57:09.572Z,66.40
2018-05-01T08:02:13.415Z,66.00
2018-05-01T08:07:19.590Z,65.40
2018-05-01T08:12:22.681Z,65.20
2018-05-01T08:17:25.785Z,62.40
2018-05-01T08:22:28.119Z,63.40
2018-05-01T08:27:30.842Z,61.50
2018-05-01T08:32:33.162Z,60.70
2018-05-01T08:42:39.426Z,58.00
2018-05-01T08:47:42.524Z,56.70
2018-05-01T08:57:48.787Z,56.20
2018-05-01T09:02:52.265Z,54.20
2018-05-01T09:07:54.611Z,54.00
2018-05-01T09:12:56.949Z,53.20
2018-05-01T09:18:00.063Z,50.00
2018-05-01T09:23:02.368Z,49.40
2018-05-01T09:28:04.705Z,51.00
2018-05-01T09:33:07.429Z,51.60
2018-05-01T09:38:09.765Z,51.20
2018-05-01T09:48:16.801Z,50.00
2018-05-01T09:53:20.336Z,50.50
2018-05-01T09:58:23.353Z,52.20
2018-05-01T10:03:27.198Z,52.50
2018-05-01T10:13:36.225Z,54.00
2018-05-01T10:18:40.444Z,53.20
2018-05-01T10:23:43.529Z,51.70
2018-05-01T10:28:46.618Z,53.50
2018-05-01T10:33:49.734Z,53.00
2018-05-01T10:43:58.821Z,54.00
2018-05-01T10:49:01.828Z,54.40
2018-05-01T10:54:05.296Z,53.70
2018-05-01T10:59:08.793Z,53.90
2018-05-01T11:04:12.670Z,54.70
2018-05-01T11:09:16.152Z,55.30
2018-05-01T11:14:19.264Z,56.50
2018-05-01T11:19:23.857Z,53.30
2018-05-01T11:24:26.950Z,52.90
2018-05-01T11:29:30.042Z,52.40
2018-05-01T11:44:42.757Z,53.60
2018-05-01T11:54:51.033Z,52.10
2018-05-01T11:59:54.137Z,52.30
2018-05-01T12:04:58.789Z,52.70
2018-05-01T12:10:01.867Z,53.00
2018-05-01T12:15:05.385Z,51.90
2018-05-01T12:20:09.320Z,54.70
2018-05-01T12:25:13.183Z,54.10
2018-05-01T12:30:16.284Z,56.10
2018-05-01T12:35:20.533Z,55.50
2018-05-01T12:40:23.632Z,54.60
2018-05-01T12:45:26.717Z,54.90
2018-05-01T12:50:29.806Z,54.10
2018-05-01T13:00:38.123Z,54.50
2018-05-01T13:05:41.966Z,52.30
2018-05-01T13:10:45.460Z,49.50
2018-05-01T13:15:49.301Z,53.80
2018-05-01T13:25:58.345Z,52.40
2018-05-01T13:31:01.441Z,50.80
2018-05-01T13:36:05.302Z,50.70
2018-05-01T13:41:09.136Z,51.30
2018-05-01T13:46:12.613Z,51.40
2018-05-01T13:51:17.201Z,49.70
2018-05-01T13:56:21.058Z,52.00
2018-05-01T14:01:24.540Z,51.90
2018-05-01T14:06:28.401Z,49.70
2018-05-01T14:11:32.618Z,51.50
2018-05-01T14:16:36.510Z,49.80
2018-05-01T14:21:39.675Z,49.90
2018-05-01T14:26:43.529Z,49.80
2018-05-01T14:36:52.540Z,47.00
2018-05-01T14:41:55.621Z,49.80
2018-05-01T14:46:58.725Z,48.70
2018-05-01T14:57:06.613Z,46.90
2018-05-01T15:02:11.648Z,46.80
2018-05-01T15:07:14.734Z,47.80
2018-05-01T15:12:18.618Z,46.80
2018-05-01T15:17:21.777Z,47.60
2018-05-01T15:22:26.064Z,49.40
2018-05-01T15:27:29.961Z,48.10
2018-05-01T15:32:33.841Z,48.60
2018-05-01T15:37:36.953Z,47.90
2018-05-01T15:42:40.045Z,48.90
2018-05-01T15:47:43.134Z,50.50
2018-05-01T15:52:47.713Z,50.20
2018-05-01T15:57:51.925Z,49.60
2018-05-01T16:02:56.144Z,50.20
2018-05-01T16:08:00.396Z,49.20
2018-05-01T16:13:04.245Z,49.80
2018-05-01T16:18:08.089Z,48.80
2018-05-01T16:23:11.569Z,48.40
2018-05-01T16:28:15.042Z,48.60
2018-05-01T16:33:19.270Z,48.00
2018-05-01T16:43:27.174Z,49.80
2018-05-01T16:53:36.188Z,51.10
2018-05-01T16:58:40.413Z,50.80
2018-05-01T17:03:44.253Z,51.20
2018-05-01T17:08:47.341Z,51.00
2018-05-01T17:13:51.353Z,51.80
2018-05-01T17:18:55.939Z,50.50
2018-05-01T17:23:59.023Z,49.10
2018-05-01T17:29:02.100Z,49.10
2018-05-01T17:34:06.327Z,50.10
2018-05-01T17:39:09.384Z,51.80
2018-05-01T17:44:12.477Z,52.70
2018-05-01T17:49:16.325Z,49.60
2018-05-01T17:54:19.833Z,51.10
2018-05-01T17:59:22.926Z,52.50
2018-05-01T18:04:26.019Z,52.50
2018-05-01T18:19:38.377Z,55.40
2018-05-01T18:24:42.605Z,56.20
2018-05-01T18:29:46.829Z,58.00
2018-05-01T18:34:51.053Z,58.50
2018-05-01T18:39:54.133Z,60.90
2018-05-01T18:44:58.004Z,61.80
2018-05-01T18:50:01.077Z,63.80
2018-05-01T18:55:04.169Z,66.20
2018-05-01T19:00:07.257Z,68.20
2018-05-01T19:05:11.838Z,70.20
2018-05-01T19:10:15.719Z,70.30
2018-05-01T19:15:19.587Z,71.00
2018-05-01T19:25:27.577Z,73.80
2018-05-01T19:30:30.666Z,73.20
2018-05-01T19:35:33.832Z,76.30
2018-05-01T19:40:37.390Z,76.30
2018-05-01T19:50:44.961Z,76.30
2018-05-01T19:55:47.987Z,77.50
2018-05-01T20:00:51.444Z,78.20
2018-05-01T20:10:59.337Z,79.50
2018-05-01T20:16:02.408Z,79.10
2018-05-01T20:26:11.428Z,77.90
2018-05-01T20:36:18.939Z,76.60
2018-05-01T20:41:23.194Z,76.40
2018-05-01T20:46:27.048Z,76.40
2018-05-01T20:56:34.563Z,76.00
2018-05-01T21:01:37.681Z,76.20
2018-05-01T21:06:41.151Z,76.20
2018-05-01T21:11:44.226Z,77.00
2018-05-01T21:16:48.100Z,78.00
2018-05-01T21:21:51.183Z,79.20
2018-05-01T21:26:54.247Z,80.50
2018-05-01T21:31:57.317Z,81.20
2018-05-01T21:37:01.157Z,81.80
2018-05-01T21:42:04.233Z,82.40
2018-05-01T21:47:08.438Z,83.00
2018-05-01T21:52:13.033Z,83.90
2018-05-01T21:57:16.214Z,84.20
2018-05-01T22:02:20.328Z,84.10
2018-05-01T22:07:24.180Z,84.40
2018-05-01T22:12:27.261Z,85.00
2018-05-01T22:22:34.741Z,85.40
2018-05-01T22:27:38.973Z,85.00
2018-05-01T22:32:43.549Z,85.10
2018-05-01T22:37:48.137Z,86.60
2018-05-01T22:42:51.945Z,87.10
2018-05-01T22:47:55.009Z,87.30
2018-05-01T22:52:58.477Z,88.00
2018-05-01T22:58:01.591Z,88.20
2018-05-01T23:03:04.678Z,88.30
2018-05-01T23:08:07.789Z,88.80
2018-05-01T23:18:15.273Z,89.40
2018-05-01T23:23:19.865Z,90.00
2018-05-01T23:28:22.953Z,90.20
2018-05-01T23:33:26.026Z,90.40
2018-05-01T23:38:29.860Z,90.40
2018-05-01T23:43:33.330Z,90.70
2018-05-01T23:48:38.680Z,90.70
2018-05-01T23:53:41.900Z,90.90
2018-05-01T23:58:45.729Z,91.20
